Time;durP1;ratioP1;P1;durP2;ratioP2;P2;SDS_P1;SDS_P2;PMS_P1;PMS_P2;Temp;Humidity;BMP_temperature;BMP_pressure;BME280_temperature;BME280_humidity;BME280_pressure;Samples;Min_cycle;Max_cycle;Signal;HPM_P1;HPM_P2
2023/10/16 00:02:23;;;;;;;41.30;14.47;;;;;;;-141.97;54.48;47507.53;5033648;28;20606;-81
2023/10/16 00:04:50;;;;;;;36.00;14.80;;;;;;;-141.97;54.20;47503.69;5004273;28;20269;-81
2023/10/16 00:07:22;;;;;;;31.23;15.67;;;;;;;-141.97;54.33;47534.44;5014877;28;20221;-81
2023/10/16 00:09:53;;;;;;;42.80;16.30;;;;;;;-141.97;54.17;47686.31;5015424;28;20174;-82
2023/10/16 00:12:19;;;;;;;31.70;11.93;;;;;;;-141.97;54.20;47551.75;5015400;28;20166;-81
2023/10/16 00:14:47;;;;;;;39.97;15.23;;;;;;;-141.97;54.09;47555.59;5033113;28;20186;-81
2023/10/16 00:17:15;;;;;;;24.27;12.17;;;;;;;-141.97;54.20;47530.59;5014190;28;20253;-83
2023/10/16 00:19:44;;;;;;;24.60;12.70;;;;;;;-141.97;54.41;47480.63;5033065;28;20247;-84
2023/10/16 00:22:18;;;;;;;26.40;11.43;;;;;;;-141.97;54.50;47546.00;5033043;28;20228;-85
2023/10/16 00:24:47;;;;;;;32.87;11.23;;;;;;;-141.97;54.37;47492.16;5032963;28;20185;-85
2023/10/16 00:27:16;;;;;;;38.20;13.93;;;;;;;-141.97;54.31;47651.69;5032456;28;20174;-84
2023/10/16 00:29:42;;;;;;;51.37;9.93;;;;;;;-141.97;54.34;47519.06;5014089;28;20185;-85
2023/10/16 00:32:08;;;;;;;37.77;12.73;;;;;;;-141.97;54.37;47453.72;4994857;28;20291;-84
2023/10/16 00:34:34;;;;;;;28.87;11.03;;;;;;;-141.97;54.07;47649.78;5015057;28;20185;-84
2023/10/16 00:37:01;;;;;;;22.40;8.40;;;;;;;-141.97;53.95;47457.56;5014905;28;20268;-86
2023/10/16 00:39:30;;;;;;;43.93;10.80;;;;;;;-141.97;54.02;47699.75;5002372;28;20178;-85
2023/10/16 00:41:57;;;;;;;24.23;9.23;;;;;;;-141.97;53.97;47574.81;5032773;28;20216;-85
2023/10/16 00:44:33;;;;;;;25.30;9.07;;;;;;;-141.97;54.14;47434.50;5006907;28;20190;-84
2023/10/16 00:47:00;;;;;;;15.60;7.50;;;;;;;-141.97;54.18;47515.22;5011212;28;20639;-83
2023/10/16 00:49:26;;;;;;;12.23;6.90;;;;;;;-141.97;54.11;47665.16;5014731;28;20166;-84
2023/10/16 00:51:52;;;;;;;24.77;8.23;;;;;;;-141.97;54.05;47538.28;5031948;28;20602;-84
2023/10/16 00:54:28;;;;;;;31.97;9.20;;;;;;;-141.97;53.88;47438.34;5031694;28;20193;-83
2023/10/16 00:56:57;;;;;;;21.70;7.20;;;;;;;-141.97;53.71;47659.38;5032162;28;20185;-85
2023/10/16 00:59:23;;;;;;;21.27;7.07;;;;;;;-141.97;53.90;47563.28;5010537;28;20283;-85
2023/10/16 01:02:04;;;;;;;19.67;7.17;;;;;;;-141.97;53.85;47661.31;5026532;28;20350;-84
2023/10/16 01:04:31;;;;;;;16.80;7.67;;;;;;;-141.97;53.66;47384.53;5029808;28;20247;-85
2023/10/16 01:06:57;;;;;;;18.87;6.73;;;;;;;-141.97;53.79;47611.34;5033000;28;20289;-85
2023/10/16 01:09:22;;;;;;;20.87;6.80;;;;;;;-141.97;53.52;47544.06;5022168;28;20192;-85
2023/10/16 01:11:52;;;;;;;19.13;6.03;;;;;;;-141.97;53.35;47565.22;5035089;28;20197;-85
2023/10/16 01:14:18;;;;;;;22.53;5.70;;;;;;;-141.97;53.31;47511.38;5031518;28;20265;-86
2023/10/16 01:16:44;;;;;;;12.00;5.53;;;;;;;-141.97;53.06;47546.00;5031632;28;20196;-85
2023/10/16 01:19:10;;;;;;;9.37;4.63;;;;;;;-141.97;53.17;47457.56;5031738;28;20194;-85
2023/10/16 01:21:36;;;;;;;10.97;5.27;;;;;;;-141.97;53.03;47665.16;5028402;28;20194;-85
2023/10/16 01:24:16;;;;;;;14.00;6.20;;;;;;;-141.97;53.01;47438.34;5000973;28;20240;-85
2023/10/16 01:26:42;;;;;;;12.33;4.60;;;;;;;-141.97;53.02;47472.94;5022233;28;20187;-85
2023/10/16 01:29:09;;;;;;;13.33;5.67;;;;;;;-141.97;52.95;47444.13;5024641;28;20642;-84
2023/10/16 01:31:36;;;;;;;9.47;4.70;;;;;;;-141.97;53.07;47515.22;5017064;28;20308;-85
2023/10/16 01:34:03;;;;;;;8.60;4.27;;;;;;;-141.97;52.98;47547.91;5031581;28;20207;-84
2023/10/16 01:36:30;;;;;;;8.93;3.83;;;;;;;-141.97;52.75;47461.41;5031588;28;20201;-85
2023/10/16 01:38:59;;;;;;;8.30;4.13;;;;;;;-141.97;52.76;47565.22;5031453;28;20633;-84
2023/10/16 01:41:24;;;;;;;6.43;4.13;;;;;;;-141.97;52.87;47686.31;5012955;28;20190;-84
2023/10/16 01:43:52;;;;;;;7.37;3.93;;;;;;;-141.97;52.74;47465.25;5035327;28;20178;-83
2023/10/16 01:46:18;;;;;;;7.68;3.75;;;;;;;-141.97;52.51;47551.75;5012888;28;20515;-85
2023/10/16 01:48:49;;;;;;;7.67;3.87;;;;;;;-141.97;52.45;47524.84;5002263;28;20198;-88
2023/10/16 01:51:19;;;;;;;7.97;3.50;;;;;;;-141.97;52.37;47613.25;5033077;28;20169;-89
2023/10/16 01:53:47;;;;;;;4.43;2.77;;;;;;;-141.97;51.94;47580.59;5031176;28;20255;-88
2023/10/16 01:56:14;;;;;;;4.43;3.00;;;;;;;-141.97;51.91;47561.38;5013490;28;20263;-89
2023/10/16 01:58:44;;;;;;;6.60;3.50;;;;;;;-141.97;51.71;47522.91;5008684;28;20610;-88
2023/10/16 02:01:15;;;;;;;6.73;3.40;;;;;;;-141.97;51.41;47544.06;5027170;28;20744;-86
2023/10/16 02:03:46;;;;;;;6.70;3.60;;;;;;;-141.97;51.22;47503.69;5034482;28;20169;-86
2023/10/16 02:06:12;;;;;;;5.73;2.83;;;;;;;-141.97;51.08;47544.06;5040383;28;20173;-83
2023/10/16 02:08:39;;;;;;;2.90;2.53;;;;;;;-141.97;50.55;47515.22;5045246;28;20229;-87
2023/10/16 02:11:06;;;;;;;6.27;2.93;;;;;;;-141.97;50.29;47592.13;5016140;28;20320;-89
2023/10/16 02:13:35;;;;;;;8.87;2.60;;;;;;;-141.97;49.86;47442.19;5033101;28;20213;-89
2023/10/16 02:16:02;;;;;;;2.97;2.10;;;;;;;-141.97;49.48;47476.78;5032555;28;20181;-87
2023/10/16 02:18:36;;;;;;;5.30;2.20;;;;;;;-141.97;48.78;47692.06;5016014;28;20661;-86
2023/10/16 02:21:02;;;;;;;6.23;2.20;;;;;;;-141.97;48.62;47651.69;5013653;28;20349;-86
2023/10/16 02:23:30;;;;;;;4.00;2.30;;;;;;;-141.97;49.03;47426.81;5001586;28;20188;-86
2023/10/16 02:25:57;;;;;;;7.03;3.20;;;;;;;-141.97;50.03;47476.78;5016550;28;20189;-85
2023/10/16 02:28:25;;;;;;;5.10;3.60;;;;;;;-141.97;51.02;47519.06;5026521;28;20174;-85
2023/10/16 02:30:51;;;;;;;8.07;3.47;;;;;;;-141.97;50.78;47507.53;5033635;28;20527;-85
2023/10/16 02:35:49;;;;;;;5.10;2.50;;;;;;;-141.97;49.06;47371.09;5030981;28;20256;-86
2023/10/16 02:38:23;;;;;;;7.50;2.23;;;;;;;-141.97;48.21;47348.03;5007673;28;20178;-85
2023/10/16 02:40:52;;;;;;;8.00;2.10;;;;;;;-141.97;47.44;47553.69;5010183;28;20222;-88
2023/10/16 02:43:20;;;;;;;13.70;2.50;;;;;;;-141.97;47.72;47434.50;5030999;28;20269;-89
2023/10/16 02:45:47;;;;;;;3.90;1.80;;;;;;;-141.97;47.83;47461.41;5014113;28;20638;-89
2023/10/16 02:48:18;;;;;;;4.73;2.03;;;;;;;-141.97;47.95;47534.44;5013825;28;20169;-89
2023/10/16 02:50:54;;;;;;;7.13;1.97;;;;;;;-141.97;47.95;47449.88;5013798;28;20178;-88
2023/10/16 02:53:25;;;;;;;3.77;1.70;;;;;;;-141.97;47.61;47467.19;5031287;28;20290;-88
2023/10/16 02:56:02;;;;;;;8.90;2.37;;;;;;;-141.97;47.88;47665.16;5031396;28;20186;-89
2023/10/16 02:58:28;;;;;;;8.33;2.20;;;;;;;-141.97;47.95;47396.06;5031908;28;20177;-88
2023/10/16 03:00:59;;;;;;;2.97;1.80;;;;;;;-141.97;48.32;47536.38;5002030;28;20210;-89
2023/10/16 03:03:28;;;;;;;3.30;1.80;;;;;;;-141.97;48.44;47472.94;5009021;28;20170;-89
2023/10/16 03:05:55;;;;;;;5.00;1.97;;;;;;;-141.97;48.58;47446.03;5031217;28;20244;-88
2023/10/16 03:08:29;;;;;;;6.13;2.20;;;;;;;-141.97;48.96;47434.50;5030951;28;20229;-88
2023/10/16 03:11:06;;;;;;;4.20;1.83;;;;;;;-141.97;49.36;47570.97;5013412;28;20206;-87
2023/10/16 03:13:35;;;;;;;3.17;1.73;;;;;;;-141.97;49.74;47688.22;5008539;28;20638;-87
2023/10/16 03:16:11;;;;;;;3.17;2.00;;;;;;;-141.97;49.78;47661.31;5014700;28;20259;-87
2023/10/16 03:18:48;;;;;;;4.13;1.90;;;;;;;-141.97;50.02;47515.22;5036622;28;20182;-87
2023/10/16 03:23:49;;;;;;;6.67;2.10;;;;;;;-141.97;50.72;47584.44;5030765;28;20654;-86
2023/10/16 03:28:47;;;;;;;7.20;2.40;;;;;;;-141.97;50.64;47546.00;5034729;28;20201;-87
2023/10/16 03:31:14;;;;;;;10.27;2.87;;;;;;;-141.97;51.11;47492.16;5033975;28;20583;-85
2023/10/16 03:33:39;;;;;;;8.67;2.83;;;;;;;-141.97;51.30;47569.06;5031584;28;20166;-84
2023/10/16 03:36:05;;;;;;;11.40;3.07;;;;;;;-141.97;51.44;47411.44;5047645;28;20181;-85
2023/10/16 03:38:41;;;;;;;15.17;3.47;;;;;;;-141.97;51.82;47449.88;5030261;28;20177;-85
2023/10/16 03:41:27;;;;;;;14.03;2.87;;;;;;;-141.97;52.09;47544.06;5050343;28;20194;-86
2023/10/16 03:43:57;;;;;;;10.67;3.70;;;;;;;-141.97;51.94;47488.31;5048778;28;20174;-84
2023/10/16 03:46:29;;;;;;;9.60;3.27;;;;;;;-141.97;52.19;47536.38;5039910;28;20244;-86
2023/10/16 03:48:57;;;;;;;13.10;4.20;;;;;;;-141.97;52.49;47469.09;5001016;28;20179;-86
2023/10/16 03:51:23;;;;;;;10.33;4.57;;;;;;;-141.97;52.54;47549.84;5007663;28;20198;-89
2023/10/16 03:53:56;;;;;;;9.73;4.10;;;;;;;-141.97;52.77;47465.25;5034506;28;20200;-89
2023/10/16 03:56:22;;;;;;;9.63;4.50;;;;;;;-141.97;53.24;47430.66;5018091;28;20181;-90
2023/10/16 03:58:48;;;;;;;13.33;4.60;;;;;;;-141.97;53.47;47484.47;5013409;28;20655;-89
2023/10/16 04:01:21;;;;;;;13.53;4.77;;;;;;;-141.97;54.08;47536.38;5022426;28;20289;-90
2023/10/16 04:03:47;;;;;;;12.40;4.70;;;;;;;-141.97;54.34;47661.31;5050839;28;20207;-89
2023/10/16 04:06:19;;;;;;;20.10;5.87;;;;;;;-141.97;54.61;47532.53;5048586;28;20161;-90
2023/10/16 04:08:47;;;;;;;14.00;4.70;;;;;;;-141.97;54.85;47446.03;5046470;28;20190;-92
2023/10/16 04:11:12;;;;;;;10.97;4.63;;;;;;;-141.97;54.84;47480.63;5016510;28;20240;-91
2023/10/16 04:13:45;;;;;;;13.37;5.40;;;;;;;-141.97;54.71;47547.91;5015436;28;20618;-91
2023/10/16 04:16:13;;;;;;;9.73;5.90;;;;;;;-141.97;55.02;47474.88;4996798;28;20263;-89
2023/10/16 04:18:46;;;;;;;8.70;5.67;;;;;;;-141.97;54.53;47480.63;5011726;28;20183;-87
2023/10/16 04:31:44;;;;;;;8.40;4.93;;;;;;;-141.97;54.56;47476.78;5032519;28;20189;-85
2023/10/16 04:53:07;;;;;;;13.93;5.77;;;;;;;-141.97;52.23;47686.31;5032496;28;20634;-88
2023/10/16 05:16:47;;;;;;;11.97;5.27;;;;;;;-141.97;50.53;47567.13;5032648;28;20178;-88
2023/10/16 06:14:14;;;;;;;11.00;4.50;;;;;;;-141.97;48.11;47447.97;5029313;28;20180;-85
2023/10/16 06:16:45;;;;;;;9.03;4.73;;;;;;;-141.97;47.76;47597.88;5005693;28;20205;-88
2023/10/16 06:19:15;;;;;;;14.73;6.23;;;;;;;-141.97;47.83;47661.31;5029855;28;20276;-90
2023/10/16 06:21:46;;;;;;;16.13;5.20;;;;;;;-141.97;46.82;47484.47;5020344;28;20731;-90
2023/10/16 06:24:25;;;;;;;11.70;4.77;;;;;;;-141.97;46.50;47407.59;5025630;28;20205;-88
2023/10/16 06:27:09;;;;;;;10.47;5.10;;;;;;;-141.97;46.42;47428.75;5024982;28;20181;-89
2023/10/16 06:29:51;;;;;;;11.17;5.10;;;;;;;-141.97;46.07;47459.50;5024281;28;20190;-88
2023/10/16 06:32:20;;;;;;;11.83;4.73;;;;;;;-141.97;45.96;47530.59;5046223;28;20171;-87
2023/10/16 06:34:51;;;;;;;10.03;4.50;;;;;;;-141.97;45.34;47509.47;5013768;28;20174;-87
2023/10/16 06:37:17;;;;;;;8.53;4.23;;;;;;;-141.97;45.55;47565.22;5014438;28;20175;-86
2023/10/16 06:39:54;;;;;;;6.83;4.50;;;;;;;-141.97;45.84;47522.91;5006813;28;20177;-87
2023/10/16 06:42:20;;;;;;;6.33;4.43;;;;;;;-141.97;45.85;47492.16;5032355;28;20193;-87
2023/10/16 06:44:55;;;;;;;7.03;4.77;;;;;;;-141.97;45.73;47557.53;5015040;28;20240;-86
2023/10/16 06:47:47;;;;;;;8.87;4.33;;;;;;;-141.97;45.06;47478.72;5013433;28;20273;-85
2023/10/16 06:52:52;;;;;;;9.17;4.00;;;;;;;-141.97;45.44;47540.22;5023749;28;20178;-87
2023/10/16 06:55:18;;;;;;;5.73;4.03;;;;;;;-141.97;45.23;47524.84;5028049;28;20185;-88
2023/10/16 06:57:44;;;;;;;6.87;4.33;;;;;;;-141.97;45.21;47603.66;5012919;28;20181;-87
2023/10/16 07:00:33;;;;;;;9.97;4.70;;;;;;;-141.97;44.55;47522.91;5001030;28;20265;-88
2023/10/16 07:03:02;;;;;;;6.33;4.17;;;;;;;-141.97;44.42;47519.06;4993553;28;20209;-87
2023/10/16 07:05:44;;;;;;;6.33;4.10;;;;;;;-141.97;43.96;47647.84;5051879;28;20177;-86
2023/10/16 07:08:18;;;;;;;5.47;4.13;;;;;;;-141.97;43.51;47492.16;5022272;28;20229;-88
2023/10/16 07:10:55;;;;;;;7.53;4.07;;;;;;;-141.97;43.26;47465.25;5032457;28;20252;-89
2023/10/16 07:13:27;;;;;;;6.50;3.53;;;;;;;-141.97;42.49;47559.44;5032582;28;20201;-89
2023/10/16 07:15:56;;;;;;;9.17;3.83;;;;;;;-141.97;42.37;47584.44;5015691;28;20174;-88
2023/10/16 07:18:26;;;;;;;7.13;4.10;;;;;;;-141.97;42.54;47534.44;5014651;28;20622;-91
2023/10/16 07:20:59;;;;;;;5.03;3.80;;;;;;;-141.97;42.04;47544.06;4994749;28;20229;-90
2023/10/16 07:23:45;;;;;;;7.70;4.33;;;;;;;-141.97;42.03;47569.06;5025321;28;20174;-89
2023/10/16 07:26:10;;;;;;;8.37;4.40;;;;;;;-141.97;41.63;47438.34;5015516;28;20197;-89
2023/10/16 07:28:38;;;;;;;13.57;4.00;;;;;;;-141.97;41.54;47569.06;5043619;28;20196;-88
2023/10/16 07:31:05;;;;;;;11.10;4.27;;;;;;;-141.97;41.29;47555.59;5058487;28;20178;-88
2023/10/16 07:33:32;;;;;;;12.00;4.00;;;;;;;-141.97;41.32;47544.06;5025155;28;20178;-87
2023/10/16 07:35:59;;;;;;;8.07;3.93;;;;;;;-141.97;41.44;47499.84;5058899;28;20161;-88
2023/10/16 07:38:28;;;;;;;10.10;5.70;;;;;;;-141.97;40.63;47522.91;5026190;28;20174;-87
2023/10/16 07:40:56;;;;;;;37.93;6.83;;;;;;;-141.97;40.03;47453.72;5020991;28;20193;-89
2023/10/16 07:43:29;;;;;;;5.77;3.77;;;;;;;-141.97;40.03;47557.53;5039124;28;20204;-88
2023/10/16 07:46:19;;;;;;;7.57;4.77;;;;;;;-141.97;39.92;47661.31;5021904;28;20174;-88
2023/10/16 07:48:50;;;;;;;8.20;4.33;;;;;;;-141.97;39.65;47578.66;5033991;28;20229;-89
2023/10/16 07:51:19;;;;;;;4.77;3.73;;;;;;;-141.97;39.73;47590.19;5033571;28;20170;-89
2023/10/16 07:53:45;;;;;;;6.33;4.00;;;;;;;-141.97;39.23;47557.53;5015975;28;20170;-89
2023/10/16 07:56:25;;;;;;;5.20;3.67;;;;;;;-141.97;39.09;47522.91;5017457;28;20649;-88
2023/10/16 07:59:08;;;;;;;6.50;4.33;;;;;;;-141.97;39.39;47553.69;5001612;28;20178;-88
2023/10/16 08:01:54;;;;;;;9.93;4.00;;;;;;;-141.97;38.84;47522.91;5035477;28;20194;-87
2023/10/16 08:04:35;;;;;;;8.93;3.83;;;;;;;-141.97;39.04;47544.06;5033953;28;20208;-88
2023/10/16 08:07:10;;;;;;;5.27;3.97;;;;;;;-141.97;38.74;47555.59;5016611;28;20226;-87
2023/10/16 08:09:48;;;;;;;6.07;4.07;;;;;;;-141.97;37.93;47534.44;5034040;28;20162;-89
2023/10/16 08:12:35;;;;;;;7.00;4.27;;;;;;;-141.97;38.14;47717.06;5004091;28;20600;-89
2023/10/16 08:15:09;;;;;;;9.10;4.00;;;;;;;-141.97;37.85;47549.84;5033609;28;20173;-87
2023/10/16 08:17:36;;;;;;;8.50;3.40;;;;;;;-141.97;37.66;47690.16;5016039;28;20208;-88
2023/10/16 08:20:06;;;;;;;4.83;4.30;;;;;;;-141.97;37.71;47532.53;5034188;28;20264;-88
2023/10/16 08:22:33;;;;;;;5.00;3.50;;;;;;;-141.97;37.71;47669.00;5023903;28;20649;-91
2023/10/16 08:24:58;;;;;;;6.80;3.70;;;;;;;-141.97;37.57;47399.91;5017448;28;20239;-90
2023/10/16 08:30:32;;;;;;;4.70;3.57;;;;;;;-141.97;36.90;47563.28;5035638;28;20196;-88
2023/10/16 08:33:06;;;;;;;11.73;3.27;;;;;;;-141.97;36.68;47511.38;5015923;28;20177;-88
2023/10/16 08:35:38;;;;;;;6.80;3.60;;;;;;;-141.97;36.19;47655.53;5015450;28;20186;-89
2023/10/16 08:38:25;;;;;;;10.37;3.83;;;;;;;-141.97;35.96;47522.91;4998700;28;20194;-88
2023/10/16 08:40:57;;;;;;;5.30;3.30;;;;;;;-141.97;35.53;47547.91;5015018;28;20251;-90
2023/10/16 08:43:53;;;;;;;13.93;3.80;;;;;;;-141.97;35.19;47536.38;5033461;28;20185;-89
2023/10/16 08:46:24;;;;;;;5.70;3.03;;;;;;;-141.97;34.60;47494.09;5030765;28;20202;-88
2023/10/16 08:48:52;;;;;;;8.53;3.37;;;;;;;-141.97;34.40;47519.06;5015389;28;20584;-88
2023/10/16 08:51:19;;;;;;;5.17;2.70;;;;;;;-141.97;34.39;47544.06;5033279;28;20154;-87
2023/10/16 08:53:45;;;;;;;7.93;3.20;;;;;;;-141.97;34.74;47422.97;5017565;28;20178;-88
2023/10/16 08:56:12;;;;;;;6.40;3.00;;;;;;;-141.97;34.36;47653.63;5017435;28;20174;-89
2023/10/16 08:58:44;;;;;;;10.17;3.90;;;;;;;-141.97;34.68;47442.19;5033791;28;20170;-88
2023/10/16 09:01:12;;;;;;;6.50;3.50;;;;;;;-141.97;34.16;47394.16;5032948;28;20248;-87
2023/10/16 09:04:01;;;;;;;10.00;5.93;;;;;;;-141.97;34.33;47617.09;5015686;28;20181;-90
2023/10/16 09:06:29;;;;;;;6.03;2.83;;;;;;;-141.97;34.52;47676.69;4954829;28;20639;-88
2023/10/16 09:08:55;;;;;;;4.20;3.00;;;;;;;-141.97;34.89;47676.69;4952818;29;20243;-88
2023/10/16 09:11:22;;;;;;;4.17;2.93;;;;;;;-141.97;35.05;47451.81;4953366;29;20184;-88
2023/10/16 09:13:53;;;;;;;6.03;3.30;;;;;;;-141.97;34.94;47486.41;4922284;29;20225;-88
2023/10/16 09:16:21;;;;;;;5.20;3.00;;;;;;;-141.97;34.92;47492.16;4940023;29;20241;-90
2023/10/16 09:18:53;;;;;;;3.63;3.17;;;;;;;-141.97;34.92;47394.16;4929797;29;20231;-88
2023/10/16 09:21:27;;;;;;;4.37;3.13;;;;;;;-141.97;33.83;47570.97;4941055;29;20302;-87
2023/10/16 09:23:58;;;;;;;5.33;3.10;;;;;;;-141.97;33.47;47538.28;4955973;29;20279;-87
2023/10/16 09:26:28;;;;;;;4.10;3.00;;;;;;;-141.97;33.17;47676.69;4940182;29;20278;-89
2023/10/16 09:29:15;;;;;;;8.20;3.07;;;;;;;-141.97;31.97;47557.53;4933823;29;20177;-90
2023/10/16 09:31:47;;;;;;;3.43;2.77;;;;;;;-141.97;32.07;47501.78;4949213;29;20197;-88
2023/10/16 09:34:17;;;;;;;4.23;3.10;;;;;;;-141.97;32.33;47565.22;4950955;28;20180;-87
2023/10/16 09:36:46;;;;;;;3.60;2.60;;;;;;;-141.97;31.74;47555.59;4933999;29;20221;-87
2023/10/16 09:39:18;;;;;;;4.43;3.23;;;;;;;-141.97;31.53;47519.06;4945868;28;20177;-88
2023/10/16 09:41:48;;;;;;;4.20;2.87;;;;;;;-141.97;31.23;47492.16;4988697;28;20253;-88
2023/10/16 09:44:23;;;;;;;5.47;2.73;;;;;;;-141.97;30.95;47453.72;5008981;28;20205;-88
2023/10/16 09:46:53;;;;;;;4.83;2.80;;;;;;;-141.97;31.05;47603.66;4994804;28;20174;-89
2023/10/16 09:49:23;;;;;;;18.13;7.07;;;;;;;-141.97;30.47;47536.38;5031038;28;20257;-88
2023/10/16 09:52:03;;;;;;;4.53;3.20;;;;;;;-141.97;30.07;47695.91;5013998;28;20317;-87
2023/10/16 09:54:30;;;;;;;8.07;3.33;;;;;;;-141.97;30.32;47517.16;5031811;28;20170;-88
2023/10/16 09:57:00;;;;;;;5.50;3.60;;;;;;;-141.97;29.34;47467.19;5031788;28;20653;-89
2023/10/16 09:59:33;;;;;;;8.47;4.97;;;;;;;-141.97;29.76;47519.06;5014200;28;20202;-88
2023/10/16 10:02:16;;;;;;;69.60;37.27;;;;;;;-141.97;29.61;47469.09;5031253;28;20202;-88
2023/10/16 10:04:59;;;;;;;15.50;8.47;;;;;;;-141.97;28.35;47484.47;5013111;28;20185;-87
2023/10/16 10:07:38;;;;;;;4.83;3.00;;;;;;;-141.97;28.57;47515.22;5013991;28;20253;-88
2023/10/16 10:12:56;;;;;;;5.63;2.80;;;;;;;-141.97;27.04;47503.69;5031680;28;20173;-89
2023/10/16 10:15:35;;;;;;;5.23;2.50;;;;;;;-141.97;27.83;47497.94;5030920;28;20216;-90
2023/10/16 10:18:31;;;;;;;5.13;3.13;;;;;;;-141.97;26.19;47497.94;5004257;28;20312;-89
2023/10/16 10:21:12;;;;;;;3.93;2.50;;;;;;;-141.97;26.35;47388.38;5034663;28;20202;-88
2023/10/16 10:23:36;;;;;;;6.50;4.37;;;;;;;-141.97;26.42;47484.47;5043206;28;20255;-89
2023/10/16 10:26:07;;;;;;;10.77;4.93;;;;;;;-141.97;26.38;47357.63;5044268;28;20178;-90
2023/10/16 10:28:36;;;;;;;10.03;5.03;;;;;;;-141.97;26.27;47592.13;5018284;28;20292;-90
2023/10/16 10:31:05;;;;;;;15.60;6.93;;;;;;;-141.97;26.08;47398.00;5014895;28;20170;-90
2023/10/16 10:33:51;;;;;;;3.17;2.37;;;;;;;-141.97;25.75;47517.16;5014451;28;20174;-91
2023/10/16 10:36:33;;;;;;;5.50;2.10;;;;;;;-141.97;25.71;47553.69;5013225;28;20537;-88
2023/10/16 10:39:20;;;;;;;14.97;5.20;;;;;;;-141.97;25.14;47494.09;4998245;28;20257;-89
2023/10/16 10:41:51;;;;;;;3.13;2.33;;;;;;;-141.97;25.29;47472.94;5010138;28;20263;-89
2023/10/16 10:44:19;;;;;;;3.87;2.00;;;;;;;-141.97;25.21;47622.88;5028722;28;20193;-90
2023/10/16 10:46:53;;;;;;;10.13;5.63;;;;;;;-141.97;25.40;47480.63;5030607;28;20186;-89
2023/10/16 10:49:30;;;;;;;3.47;2.23;;;;;;;-141.97;25.30;47513.31;5030934;28;20185;-89
2023/10/16 10:51:55;;;;;;;3.97;2.70;;;;;;;-141.97;25.47;47521.00;5031354;28;20165;-90
2023/10/16 10:54:24;;;;;;;9.33;4.47;;;;;;;-141.97;25.45;47476.78;5033679;28;20174;-89
2023/10/16 10:56:50;;;;;;;16.47;8.67;;;;;;;-141.97;25.22;47497.94;5015007;28;20268;-89
2023/10/16 10:59:39;;;;;;;20.87;10.23;;;;;;;-141.97;25.21;47490.25;5030807;28;20254;-90
2023/10/16 11:04:46;;;;;;;4.67;3.13;;;;;;;-141.97;24.93;47480.63;5020711;28;20669;-89
2023/10/16 11:07:13;;;;;;;5.93;4.33;;;;;;;-141.97;25.14;47499.84;5034217;28;20218;-88
2023/10/16 11:09:39;;;;;;;10.83;5.97;;;;;;;-141.97;24.56;47484.47;5016982;28;20239;-88
2023/10/16 11:12:08;;;;;;;4.07;2.50;;;;;;;-141.97;24.56;47436.44;5018268;28;20274;-89
2023/10/16 11:14:36;;;;;;;5.27;3.40;;;;;;;-141.97;24.73;47486.41;5016707;28;20170;-89
2023/10/16 11:17:05;;;;;;;12.70;6.53;;;;;;;-141.97;24.37;47405.69;5017489;28;20641;-88
2023/10/16 11:19:44;;;;;;;5.40;3.00;;;;;;;-141.97;24.00;47576.75;5013784;28;20262;-87
2023/10/16 11:22:09;;;;;;;2.97;2.40;;;;;;;-141.97;23.78;47474.88;5035250;28;20201;-88
2023/10/16 11:24:36;;;;;;;9.57;4.00;;;;;;;-141.97;24.27;47398.00;5037132;28;20177;-88
2023/10/16 11:27:01;;;;;;;12.57;6.23;;;;;;;-141.97;24.02;47630.56;5056699;28;20182;-89
2023/10/16 11:29:33;;;;;;;16.47;8.33;;;;;;;-141.97;24.18;47415.28;5058510;28;20182;-88
2023/10/16 11:32:06;;;;;;;11.77;6.20;;;;;;;-141.97;24.26;47496.00;5039589;28;20174;-88
2023/10/16 11:34:43;;;;;;;12.00;6.90;;;;;;;-141.97;24.13;47446.03;5039856;28;20182;-89
2023/10/16 11:37:12;;;;;;;14.73;6.50;;;;;;;-141.97;24.42;47503.69;5034871;28;20169;-88
2023/10/16 11:39:38;;;;;;;9.83;4.90;;;;;;;-141.97;24.31;47413.38;5036128;28;20192;-87
2023/10/16 11:42:04;;;;;;;8.00;3.17;;;;;;;-141.97;23.92;47392.22;5037763;28;20293;-90
2023/10/16 11:44:32;;;;;;;11.73;5.70;;;;;;;-141.97;24.09;47496.00;5020768;28;20177;-86
2023/10/16 11:47:01;;;;;;;8.17;3.10;;;;;;;-141.97;24.24;47442.19;5020380;28;20208;-90
2023/10/16 11:49:31;;;;;;;36.97;10.40;;;;;;;-141.97;23.72;47411.44;5038521;28;20606;-87
2023/10/16 11:52:19;;;;;;;6.93;3.97;;;;;;;-141.97;24.20;47488.31;5020642;28;20662;-88
2023/10/16 11:54:45;;;;;;;7.00;4.67;;;;;;;-141.97;23.77;47469.09;5036713;28;20167;-87
2023/10/16 11:57:13;;;;;;;3.60;3.17;;;;;;;-141.97;23.77;47461.41;5037619;28;20350;-87
2023/10/16 11:59:38;;;;;;;2.87;2.53;;;;;;;-141.97;23.68;47398.00;5036918;28;20173;-87
2023/10/16 12:02:17;;;;;;;3.33;2.40;;;;;;;-141.97;24.18;47503.69;5037149;28;20562;-90
2023/10/16 12:04:42;;;;;;;3.93;2.43;;;;;;;-141.97;23.90;47630.56;5036921;28;20173;-87
2023/10/16 12:07:08;;;;;;;4.93;2.83;;;;;;;-141.97;23.85;47478.72;5037221;28;20764;-88
2023/10/16 12:09:42;;;;;;;7.03;4.90;;;;;;;-141.97;24.13;47515.22;5037033;28;20169;-88
2023/10/16 12:12:08;;;;;;;17.00;8.63;;;;;;;-141.97;23.94;47428.75;5036952;28;20645;-87
2023/10/16 12:14:38;;;;;;;25.27;14.80;;;;;;;-141.97;23.80;47499.84;5051214;28;20163;-87
2023/10/16 12:17:06;;;;;;;7.43;4.90;;;;;;;-141.97;23.70;47415.28;5055896;28;20283;-89
2023/10/16 12:19:33;;;;;;;7.87;4.40;;;;;;;-141.97;23.76;47382.63;5046262;28;20240;-88
2023/10/16 12:22:00;;;;;;;4.60;3.10;;;;;;;-141.97;23.98;47503.69;5018304;28;20571;-88
2023/10/16 12:24:26;;;;;;;3.77;3.20;;;;;;;-141.97;23.93;47472.94;5016219;28;20173;-89
2023/10/16 12:26:52;;;;;;;6.70;4.93;;;;;;;-141.97;24.07;47496.00;5018077;28;20174;-89
2023/10/16 12:29:18;;;;;;;7.63;4.60;;;;;;;-141.97;23.89;47615.19;5036064;28;20158;-88
2023/10/16 12:31:43;;;;;;;5.27;3.23;;;;;;;-141.97;23.89;47619.03;5036493;28;20170;-87
2023/10/16 12:34:11;;;;;;;5.70;3.80;;;;;;;-141.97;24.18;47415.28;5018771;28;20680;-88
2023/10/16 12:36:42;;;;;;;6.20;2.70;;;;;;;-141.97;23.59;47378.78;5015693;28;20189;-88
2023/10/16 12:39:16;;;;;;;8.80;4.87;;;;;;;-141.97;23.74;47482.56;4998528;28;20854;-87
2023/10/16 12:41:42;;;;;;;10.10;3.43;;;;;;;-141.97;23.46;47430.66;5033024;28;20189;-88
2023/10/16 12:44:09;;;;;;;5.47;3.70;;;;;;;-141.97;23.63;47492.16;5035299;28;20166;-88
2023/10/16 12:46:37;;;;;;;4.60;3.57;;;;;;;-141.97;23.87;47632.47;5036160;28;20232;-87
2023/10/16 12:49:07;;;;;;;9.53;5.10;;;;;;;-141.97;23.96;47603.66;5033143;28;20169;-87
2023/10/16 12:51:34;;;;;;;6.87;4.83;;;;;;;-141.97;23.80;47392.22;5032622;28;20178;-87
2023/10/16 12:54:03;;;;;;;7.53;5.13;;;;;;;-141.97;24.04;47486.41;5032886;28;20154;-89
2023/10/16 12:56:31;;;;;;;9.10;5.73;;;;;;;-141.97;24.03;47413.38;5015224;28;20553;-88
2023/10/16 12:58:59;;;;;;;7.07;5.30;;;;;;;-141.97;24.10;47582.50;5014933;28;20162;-89
2023/10/16 13:01:25;;;;;;;9.50;5.30;;;;;;;-141.97;24.00;47469.09;5014692;28;20197;-89
2023/10/16 13:03:51;;;;;;;11.97;7.13;;;;;;;-141.97;23.63;47399.91;5014607;28;20194;-88
2023/10/16 13:06:16;;;;;;;9.10;5.30;;;;;;;-141.97;23.52;47476.78;5033081;28;20641;-89
2023/10/16 13:08:42;;;;;;;9.67;6.37;;;;;;;-141.97;23.54;47361.47;5032973;28;20332;-87
2023/10/16 13:11:07;;;;;;;6.83;5.07;;;;;;;-141.97;23.16;47392.22;5019686;28;20262;-87
2023/10/16 13:13:34;;;;;;;6.60;5.20;;;;;;;-141.97;23.52;47359.56;5049830;28;20174;-90
2023/10/16 13:16:00;;;;;;;6.10;4.40;;;;;;;-141.97;23.38;47453.72;5036145;28;20209;-87
2023/10/16 13:18:28;;;;;;;3.50;3.20;;;;;;;-141.97;23.36;47436.44;5022085;28;20252;-88
2023/10/16 13:20:58;;;;;;;4.20;3.57;;;;;;;-141.97;23.71;47409.53;5015110;28;20692;-88
2023/10/16 13:23:25;;;;;;;6.20;3.43;;;;;;;-141.97;23.40;47296.13;5015577;28;20173;-89
2023/10/16 13:25:56;;;;;;;3.73;3.40;;;;;;;-141.97;23.34;47415.28;5032851;28;20158;-89
2023/10/16 13:28:24;;;;;;;6.43;4.70;;;;;;;-141.97;23.16;47467.19;5033073;28;20650;-87
2023/10/16 13:30:51;;;;;;;7.60;3.87;;;;;;;-141.97;22.80;47296.13;5032365;28;20170;-89
2023/10/16 13:33:17;;;;;;;5.03;3.73;;;;;;;-141.97;22.61;47355.72;5015444;28;20262;-87
2023/10/16 13:35:43;;;;;;;10.10;4.80;;;;;;;-141.97;22.80;47390.31;5032323;28;20166;-89